createdAt,value
2022-10-05T00:01:44.702Z,70.05
2022-10-05T00:04:21.240Z,70.12
2022-10-05T00:05:33.516Z,70.20
2022-10-05T00:06:45.793Z,70.21
2022-10-05T00:07:57.437Z,69.85
2022-10-05T00:10:34.038Z,68.95
2022-10-05T00:13:02.388Z,68.15
2022-10-05T00:15:37.591Z,68.74
2022-10-05T00:16:47.635Z,69.00
2022-10-05T00:17:57.042Z,68.86
2022-10-05T00:20:26.533Z,68.87
2022-10-05T00:21:36.127Z,69.01
2022-10-05T00:22:47.182Z,69.06
2022-10-05T00:25:17.135Z,69.55
2022-10-05T00:27:48.283Z,69.66
2022-10-05T00:28:57.264Z,69.83
2022-10-05T00:31:36.332Z,70.09
2022-10-05T00:32:46.234Z,70.22
2022-10-05T00:34:05.893Z,70.77
2022-10-05T00:35:17.254Z,70.74
2022-10-05T00:36:26.108Z,70.61
2022-10-05T00:37:35.530Z,70.35
2022-10-05T00:40:00.245Z,69.59
2022-10-05T00:42:38.547Z,69.10
2022-10-05T00:44:09.904Z,68.37
2022-10-05T00:46:55.992Z,68.83
2022-10-05T00:49:59.003Z,69.82
2022-10-05T00:52:55.507Z,69.70
2022-10-05T00:55:39.794Z,70.11
2022-10-05T00:58:48.803Z,70.55
2022-10-05T01:01:34.095Z,70.65
2022-10-05T01:04:45.921Z,69.73
2022-10-05T01:06:11.458Z,69.76
2022-10-05T01:07:57.851Z,69.57
2022-10-05T01:11:12.206Z,69.62
2022-10-05T01:12:31.018Z,69.59
2022-10-05T01:15:14.983Z,70.17
2022-10-05T01:16:32.035Z,70.00
2022-10-05T01:19:16.561Z,70.63
2022-10-05T01:20:41.410Z,70.48
2022-10-05T01:23:25.809Z,70.04
2022-10-05T01:26:24.182Z,69.76
2022-10-05T01:27:40.841Z,69.31
2022-10-05T01:29:10.334Z,68.80
2022-10-05T01:30:22.867Z,68.82
2022-10-05T01:31:55.959Z,68.67
2022-10-05T01:33:12.869Z,68.65
2022-10-05T01:34:38.463Z,68.40
2022-10-05T01:36:00.397Z,68.95
2022-10-05T01:43:48.171Z,69.59
2022-10-05T01:46:53.385Z,69.79
2022-10-05T01:50:03.864Z,70.21
2022-10-05T01:53:03.455Z,71.09
2022-10-05T01:54:40.226Z,70.87
2022-10-05T01:57:18.907Z,70.62
2022-10-05T01:58:32.268Z,70.49
2022-10-05T01:59:44.860Z,70.23
2022-10-05T02:02:25.829Z,69.56
2022-10-05T02:06:35.655Z,68.66
2022-10-05T02:09:29.259Z,68.20
2022-10-05T02:10:49.090Z,68.78
2022-10-05T02:13:35.941Z,68.92
2022-10-05T02:16:08.802Z,68.84
2022-10-05T02:20:09.401Z,69.03
2022-10-05T02:22:40.708Z,70.23
2022-10-05T02:25:18.797Z,70.49
2022-10-05T02:26:30.917Z,70.63
2022-10-05T02:29:11.437Z,69.85
2022-10-05T02:30:21.830Z,69.38
2022-10-05T02:33:04.103Z,69.07
2022-10-05T02:34:27.984Z,68.56
2022-10-05T02:35:41.679Z,68.79
2022-10-05T02:38:53.061Z,69.00
2022-10-05T02:40:41.239Z,69.37
2022-10-05T02:43:49.119Z,69.33
2022-10-05T02:46:45.107Z,69.49
2022-10-05T02:48:08.620Z,69.69
2022-10-05T02:49:37.156Z,69.55
2022-10-05T02:50:53.823Z,69.76
2022-10-05T02:53:32.305Z,69.58
2022-10-05T02:55:05.574Z,69.56
2022-10-05T02:56:40.729Z,69.88
2022-10-05T02:57:59.324Z,70.05
2022-10-05T02:59:19.089Z,69.64
2022-10-05T03:00:32.990Z,69.76
2022-10-05T03:03:29.600Z,69.63
2022-10-05T03:04:45.441Z,69.50
2022-10-05T03:07:59.321Z,69.45
2022-10-05T03:10:41.722Z,68.78
2022-10-05T03:13:47.226Z,69.29
2022-10-05T03:15:24.774Z,69.30
2022-10-05T03:18:27.404Z,69.42
2022-10-05T03:23:04.870Z,69.43
2022-10-05T03:26:06.614Z,69.44
2022-10-05T03:29:00.684Z,69.53
2022-10-05T03:30:21.229Z,69.66
2022-10-05T03:31:58.445Z,69.92
2022-10-05T03:33:33.166Z,69.78
2022-10-05T03:37:52.031Z,69.64
2022-10-05T03:39:30.664Z,69.69
2022-10-05T03:42:24.542Z,69.85
2022-10-05T03:45:28.259Z,69.65
2022-10-05T03:48:35.099Z,69.96
2022-10-05T03:51:25.599Z,70.20
2022-10-05T03:54:25.235Z,69.87
2022-10-05T03:57:16.318Z,69.58
2022-10-05T04:00:18.296Z,69.59
2022-10-05T04:03:11.693Z,69.49
2022-10-05T04:04:25.665Z,69.38
2022-10-05T04:07:02.134Z,68.99
2022-10-05T04:09:43.322Z,69.13
2022-10-05T04:12:28.213Z,68.83
2022-10-05T04:16:25.795Z,69.05
2022-10-05T04:19:26.126Z,69.08
2022-10-05T04:22:06.111Z,69.04
2022-10-05T04:26:45.178Z,68.91
2022-10-05T04:29:48.777Z,67.09
2022-10-05T04:31:00.775Z,66.50
2022-10-05T04:33:52.485Z,64.45
2022-10-05T04:36:48.582Z,60.90
2022-10-05T04:39:26.922Z,60.87
2022-10-05T04:40:59.576Z,61.55
2022-10-05T04:42:13.427Z,61.64
2022-10-05T04:45:15.449Z,62.06
2022-10-05T04:46:42.041Z,61.02
2022-10-05T04:49:48.041Z,60.96
2022-10-05T04:51:01.812Z,60.67
2022-10-05T04:55:29.604Z,60.68
2022-10-05T04:56:41.244Z,60.69
2022-10-05T04:59:31.638Z,61.66
2022-10-05T05:02:24.843Z,62.37
2022-10-05T05:05:14.195Z,63.68
2022-10-05T05:06:33.094Z,63.84
2022-10-05T05:11:11.311Z,64.70
2022-10-05T05:14:19.469Z,65.52
2022-10-05T05:16:52.245Z,66.01
2022-10-05T05:20:17.368Z,66.30
2022-10-05T05:23:20.952Z,66.64
2022-10-05T05:26:24.862Z,66.49
2022-10-05T05:29:34.872Z,66.67
2022-10-05T05:33:46.110Z,67.08
2022-10-05T05:36:41.968Z,67.08
2022-10-05T05:39:31.164Z,67.41
2022-10-05T05:42:24.868Z,67.78
2022-10-05T05:45:28.574Z,68.16
2022-10-05T05:48:24.322Z,67.92
2022-10-05T05:52:27.677Z,68.21
2022-10-05T05:55:04.035Z,67.34
2022-10-05T05:57:49.831Z,65.75
2022-10-05T05:59:14.661Z,66.13
2022-10-05T06:01:53.917Z,65.04
2022-10-05T06:04:48.868Z,63.03
2022-10-05T06:07:25.693Z,62.90
2022-10-05T06:10:17.045Z,62.61
2022-10-05T06:11:56.271Z,62.03
2022-10-05T06:16:01.059Z,60.14
2022-10-05T06:18:48.901Z,59.50
2022-10-05T06:21:24.076Z,60.00
2022-10-05T06:24:20.819Z,58.73
2022-10-05T06:27:20.222Z,58.43
2022-10-05T06:30:08.487Z,58.26
2022-10-05T06:33:34.087Z,58.66
2022-10-05T06:36:50.616Z,58.66
2022-10-05T06:38:16.784Z,58.90
2022-10-05T06:41:13.660Z,59.05
2022-10-05T06:43:46.709Z,58.99
2022-10-05T06:45:04.477Z,58.65
2022-10-05T06:47:43.149Z,59.12
2022-10-05T06:50:37.733Z,59.65
2022-10-05T06:55:15.216Z,61.17
2022-10-05T06:58:02.776Z,61.32
2022-10-05T07:00:47.093Z,61.72
2022-10-05T07:03:21.842Z,61.96
2022-10-05T07:06:17.155Z,61.85
2022-10-05T07:11:04.528Z,61.65
2022-10-05T07:14:15.494Z,61.49
2022-10-05T07:17:03.096Z,61.02
2022-10-05T07:20:00.899Z,60.84
2022-10-05T07:23:16.457Z,60.95
2022-10-05T07:30:31.788Z,61.41
2022-10-05T07:33:27.728Z,61.55
2022-10-05T07:36:53.697Z,61.27
2022-10-05T07:39:55.360Z,61.34
2022-10-05T07:42:28.717Z,61.27
2022-10-05T07:45:16.837Z,61.34
2022-10-05T07:47:54.914Z,60.83
2022-10-05T07:50:45.840Z,61.01
2022-10-05T07:53:28.275Z,60.39
2022-10-05T07:56:21.666Z,59.28
2022-10-05T07:57:44.167Z,58.50
2022-10-05T08:00:20.703Z,57.39
2022-10-05T08:02:52.841Z,57.93
2022-10-05T08:05:38.866Z,57.93
2022-10-05T08:08:22.900Z,58.14
2022-10-05T08:09:38.543Z,58.33
2022-10-05T08:12:26.469Z,57.85
2022-10-05T08:15:14.243Z,57.36
2022-10-05T08:19:44.847Z,57.35
2022-10-05T08:22:22.031Z,57.20
2022-10-05T08:25:08.785Z,57.05
2022-10-05T08:27:56.562Z,56.96
2022-10-05T08:29:16.490Z,57.11
2022-10-05T08:30:26.178Z,57.21
2022-10-05T08:31:40.754Z,57.12
2022-10-05T08:34:49.758Z,57.13
2022-10-05T08:37:36.697Z,56.07
2022-10-05T08:38:46.412Z,55.79
2022-10-05T08:42:03.296Z,54.97
2022-10-05T08:45:02.212Z,55.22
2022-10-05T08:48:00.560Z,54.91
2022-10-05T08:50:49.427Z,55.08
2022-10-05T08:52:17.318Z,55.55
2022-10-05T08:53:35.432Z,55.28
2022-10-05T08:55:06.356Z,54.44
2022-10-05T08:56:36.395Z,54.54
2022-10-05T08:59:31.618Z,53.88
2022-10-05T09:02:37.205Z,54.31
2022-10-05T09:05:27.216Z,54.48
2022-10-05T09:07:08.116Z,54.27
2022-10-05T09:08:44.240Z,54.44
2022-10-05T09:10:06.041Z,54.22
2022-10-05T09:11:27.596Z,54.24
2022-10-05T09:14:34.066Z,54.15
2022-10-05T09:16:10.332Z,54.31
2022-10-05T09:19:13.617Z,54.27
2022-10-05T09:22:07.118Z,54.65
2022-10-05T10:04:18.678Z,54.69
2022-10-05T10:05:48.724Z,54.77
2022-10-05T10:07:28.421Z,54.52
2022-10-05T10:10:31.760Z,54.25
2022-10-05T10:13:46.277Z,54.68
2022-10-05T10:15:23.659Z,55.00
2022-10-05T10:17:01.882Z,54.86
2022-10-05T10:20:19.390Z,54.49
2022-10-05T10:23:49.919Z,53.83
2022-10-05T10:28:37.661Z,52.88
2022-10-05T10:32:17.794Z,53.00
2022-10-05T10:37:04.034Z,51.84
2022-10-05T10:39:59.917Z,52.20
2022-10-05T10:41:41.691Z,51.16
2022-10-05T10:43:17.121Z,51.19
2022-10-05T10:44:48.209Z,51.08
2022-10-05T10:46:28.311Z,50.66
2022-10-05T10:48:07.006Z,50.74
2022-10-05T10:49:35.786Z,50.93
2022-10-05T10:52:30.960Z,51.41
2022-10-05T10:55:57.954Z,51.07
2022-10-05T11:00:29.697Z,51.64
2022-10-05T11:03:44.430Z,52.01
2022-10-05T11:05:17.860Z,51.82
2022-10-05T11:08:41.398Z,51.08
2022-10-05T11:11:18.337Z,51.17
2022-10-05T11:14:22.926Z,51.53
2022-10-05T11:17:31.678Z,51.29
2022-10-05T11:20:08.642Z,51.06
2022-10-05T11:23:01.624Z,50.84
2022-10-05T11:25:50.806Z,50.59
2022-10-05T11:28:38.979Z,50.85
2022-10-05T11:32:08.609Z,51.38
2022-10-05T11:37:05.369Z,51.28
2022-10-05T11:40:16.132Z,51.03
2022-10-05T11:41:38.468Z,50.96
2022-10-05T11:44:23.498Z,51.44
2022-10-05T11:47:19.489Z,51.41
2022-10-05T11:48:51.312Z,51.50
2022-10-05T11:50:14.320Z,51.64
2022-10-05T11:53:14.887Z,51.52
2022-10-05T11:55:57.601Z,51.81
2022-10-05T11:58:50.310Z,51.78
2022-10-05T12:01:26.197Z,52.19
2022-10-05T12:04:09.229Z,52.41
2022-10-05T12:07:10.267Z,52.59
2022-10-05T12:08:37.987Z,52.64
2022-10-05T12:11:58.277Z,52.71
2022-10-05T12:14:54.749Z,52.61
2022-10-05T12:17:43.031Z,52.73
2022-10-05T12:20:18.078Z,52.63
2022-10-05T12:22:59.499Z,52.98
2022-10-05T12:25:49.902Z,52.73
2022-10-05T12:27:04.312Z,52.84
2022-10-05T12:28:20.335Z,52.75
2022-10-05T12:31:07.336Z,53.12
2022-10-05T12:32:22.815Z,53.01
2022-10-05T12:35:01.781Z,53.16
2022-10-05T12:36:16.896Z,53.25
2022-10-05T12:39:23.163Z,53.17
2022-10-05T12:43:59.091Z,53.51
2022-10-05T12:47:08.253Z,53.51
2022-10-05T12:49:52.065Z,53.29
2022-10-05T12:53:58.202Z,53.08
2022-10-05T12:56:55.342Z,53.08
2022-10-05T12:59:46.260Z,53.09
2022-10-05T13:02:30.388Z,53.13
2022-10-05T13:05:11.441Z,53.12
2022-10-05T13:08:11.102Z,52.44
2022-10-05T13:11:05.206Z,52.70
2022-10-05T13:14:01.991Z,52.70
2022-10-05T13:17:00.344Z,52.74
2022-10-05T13:19:46.531Z,53.22
2022-10-05T13:26:13.109Z,53.26
2022-10-05T13:28:52.557Z,53.36
2022-10-05T13:32:01.363Z,53.33
2022-10-05T13:34:39.594Z,53.31
2022-10-05T13:37:47.177Z,53.48
2022-10-05T13:40:47.982Z,53.54
2022-10-05T13:46:28.047Z,53.45
2022-10-05T13:49:21.466Z,53.62
2022-10-05T13:50:34.254Z,53.79
2022-10-05T13:54:52.004Z,53.66
2022-10-05T13:57:43.584Z,53.28
2022-10-05T14:00:27.368Z,53.49
2022-10-05T14:03:29.653Z,53.53
2022-10-05T14:06:30.155Z,53.57
2022-10-05T14:09:00.633Z,53.23
2022-10-05T14:11:34.606Z,53.16
2022-10-05T14:12:45.338Z,53.30
2022-10-05T14:18:24.347Z,53.60
2022-10-05T14:19:49.119Z,53.54
2022-10-05T14:22:34.827Z,53.64
2022-10-05T14:23:43.816Z,53.62
2022-10-05T14:26:37.283Z,53.63
2022-10-05T14:29:21.797Z,53.87
2022-10-05T14:31:52.943Z,53.94
2022-10-05T14:34:30.388Z,53.99
2022-10-05T14:37:24.170Z,54.24
2022-10-05T14:40:03.907Z,54.20
2022-10-05T14:42:38.272Z,54.33
2022-10-05T14:44:11.758Z,54.20
2022-10-05T14:45:26.331Z,54.15
2022-10-05T14:48:11.830Z,54.19
2022-10-05T14:49:36.811Z,54.26
2022-10-05T14:50:58.852Z,54.26
2022-10-05T14:53:49.989Z,54.33
2022-10-05T14:56:31.816Z,54.53
2022-10-05T15:00:33.428Z,54.59
2022-10-05T15:03:26.791Z,54.28
2022-10-05T15:06:05.861Z,54.33
2022-10-05T15:09:19.912Z,54.39
2022-10-05T15:11:55.960Z,54.21
2022-10-05T15:14:33.500Z,54.45
2022-10-05T15:17:16.634Z,54.63
2022-10-05T15:20:19.293Z,54.34
2022-10-05T15:24:59.515Z,54.35
2022-10-05T15:27:54.471Z,54.60
2022-10-05T15:30:54.302Z,54.48
2022-10-05T15:35:32.498Z,54.54
2022-10-05T15:38:31.867Z,54.50
2022-10-05T15:41:28.907Z,54.39
2022-10-05T15:44:10.887Z,54.43
2022-10-05T15:46:55.883Z,54.88
2022-10-05T15:50:21.422Z,55.08
2022-10-05T15:52:58.818Z,55.09
2022-10-05T15:57:22.208Z,55.32
2022-10-05T16:00:15.777Z,55.26
2022-10-05T16:03:14.402Z,55.37
2022-10-05T16:06:25.854Z,55.46
2022-10-05T16:09:44.643Z,55.05
2022-10-05T16:12:12.968Z,55.05
2022-10-05T16:14:53.900Z,55.26
2022-10-05T16:17:43.218Z,55.35
2022-10-05T16:20:23.583Z,55.28
2022-10-05T16:23:30.504Z,55.44
2022-10-05T16:26:59.600Z,55.46
2022-10-05T16:28:25.563Z,55.49
2022-10-05T16:32:37.948Z,55.44
2022-10-05T16:35:31.154Z,55.52
2022-10-05T16:36:52.861Z,55.72
2022-10-05T16:38:24.210Z,55.57
2022-10-05T16:40:06.603Z,55.79
2022-10-05T16:44:29.296Z,55.74
2022-10-05T16:47:43.837Z,55.82
2022-10-05T16:50:49.334Z,56.16
2022-10-05T16:52:01.265Z,56.30
2022-10-05T16:56:15.271Z,56.33
2022-10-05T16:58:52.243Z,56.38
2022-10-05T17:01:49.326Z,56.61
2022-10-05T17:04:42.638Z,56.64
2022-10-05T17:07:49.354Z,56.74
2022-10-05T17:09:29.604Z,57.02
2022-10-05T17:12:30.547Z,57.30
2022-10-05T17:15:53.398Z,57.03
2022-10-05T17:18:57.876Z,56.97
2022-10-05T17:22:15.710Z,57.14
2022-10-05T17:23:55.973Z,57.16
2022-10-05T17:26:48.886Z,57.54
2022-10-05T17:29:33.740Z,57.47
2022-10-05T17:31:10.581Z,57.60
2022-10-05T17:34:18.790Z,57.76
2022-10-05T17:37:31.588Z,57.89
2022-10-05T17:38:52.485Z,57.97
2022-10-05T17:41:47.810Z,58.14
2022-10-05T17:43:20.084Z,58.40
2022-10-05T17:45:51.701Z,59.03
2022-10-05T17:48:42.264Z,59.16
2022-10-05T17:50:17.949Z,59.24
2022-10-05T17:51:52.660Z,59.59
2022-10-05T17:53:39.492Z,59.67
2022-10-05T17:55:10.414Z,59.72
2022-10-05T17:56:21.624Z,59.87
2022-10-05T17:58:53.622Z,59.97
2022-10-05T18:01:31.091Z,60.00
2022-10-05T18:04:19.934Z,60.39
2022-10-05T18:05:30.625Z,60.39
2022-10-05T18:08:18.972Z,60.74
2022-10-05T18:11:20.936Z,60.70
2022-10-05T18:14:25.079Z,61.02
2022-10-05T18:17:12.915Z,60.70
2022-10-05T18:20:31.571Z,61.25
2022-10-05T18:23:05.615Z,60.83
2022-10-05T18:26:35.768Z,61.36
2022-10-05T18:28:04.579Z,61.44
2022-10-05T18:29:45.626Z,61.23
2022-10-05T18:33:23.939Z,61.42
2022-10-05T18:36:17.201Z,61.98
2022-10-05T18:37:38.671Z,61.84
2022-10-05T18:40:35.144Z,62.00
2022-10-05T18:41:56.307Z,61.98
2022-10-05T18:44:36.348Z,61.89
2022-10-05T18:49:02.674Z,61.19
2022-10-05T18:52:03.645Z,61.26
2022-10-05T18:53:16.002Z,61.11
2022-10-05T18:56:13.703Z,61.28
2022-10-05T18:57:48.282Z,61.32
2022-10-05T19:00:55.035Z,61.46
2022-10-05T19:03:54.311Z,61.42
2022-10-05T19:06:55.912Z,61.52
2022-10-05T19:08:15.147Z,61.54
2022-10-05T19:13:12.125Z,61.88
2022-10-05T19:14:40.242Z,61.86
2022-10-05T19:17:37.922Z,62.06
2022-10-05T19:20:25.820Z,61.93
2022-10-05T19:21:47.236Z,62.09
2022-10-05T19:25:01.715Z,62.20
2022-10-05T19:26:18.261Z,62.12
2022-10-05T19:27:39.864Z,61.95
2022-10-05T19:30:29.609Z,62.36
2022-10-05T19:33:28.788Z,62.53
2022-10-05T19:34:48.289Z,62.50
2022-10-05T19:37:47.480Z,62.61
2022-10-05T19:40:40.334Z,62.85
2022-10-05T19:44:05.540Z,62.83
2022-10-05T19:46:46.454Z,62.60
2022-10-05T19:49:45.030Z,62.31
2022-10-05T19:52:23.431Z,62.23
2022-10-05T19:55:12.082Z,61.90
2022-10-05T19:57:52.539Z,62.01
2022-10-05T20:00:34.901Z,62.05
2022-10-05T20:03:25.107Z,62.46
2022-10-05T20:06:02.451Z,62.23
2022-10-05T20:08:45.261Z,62.27
2022-10-05T20:11:28.274Z,61.98
2022-10-05T20:12:49.029Z,61.93
2022-10-05T20:15:38.937Z,62.32
2022-10-05T20:19:05.251Z,62.48
2022-10-05T20:20:36.556Z,62.26
2022-10-05T20:24:41.825Z,62.68
2022-10-05T20:27:50.420Z,62.75
2022-10-05T20:29:13.635Z,62.90
2022-10-05T20:31:46.229Z,63.40
2022-10-05T20:34:22.125Z,63.70
2022-10-05T20:36:50.365Z,63.47
2022-10-05T20:39:17.852Z,63.54
2022-10-05T20:40:29.411Z,63.55
2022-10-05T20:42:53.341Z,63.49
2022-10-05T20:45:17.815Z,63.48
2022-10-05T20:46:27.057Z,63.46
2022-10-05T20:47:37.344Z,63.56
2022-10-05T20:48:46.348Z,63.48
2022-10-05T20:49:55.085Z,63.32
2022-10-05T20:52:21.708Z,63.46
2022-10-05T20:53:32.606Z,63.59
2022-10-05T20:55:59.401Z,63.00
2022-10-05T20:57:09.858Z,62.97
2022-10-05T20:58:19.058Z,62.86
2022-10-05T21:01:02.621Z,62.77
2022-10-05T21:03:26.512Z,63.02
2022-10-05T21:04:40.845Z,63.17
2022-10-05T21:07:03.620Z,63.11
2022-10-05T21:08:12.144Z,63.32
2022-10-05T21:09:21.387Z,63.73
2022-10-05T21:10:30.329Z,63.95
2022-10-05T21:11:39.461Z,63.96
2022-10-05T21:12:48.639Z,63.86
2022-10-05T21:15:13.585Z,63.94
2022-10-05T21:16:25.320Z,64.37
2022-10-05T21:17:34.790Z,64.52
2022-10-05T21:20:01.345Z,64.24
2022-10-05T21:21:10.769Z,63.86
2022-10-05T21:22:20.247Z,63.80
2022-10-05T21:24:45.655Z,64.07
2022-10-05T21:25:54.698Z,63.99
2022-10-05T21:27:05.031Z,63.66
2022-10-05T21:28:14.311Z,63.54
2022-10-05T21:29:23.326Z,63.73
2022-10-05T21:30:32.243Z,63.64
2022-10-05T21:31:41.369Z,63.75
2022-10-05T21:32:50.299Z,63.64
2022-10-05T21:33:59.372Z,63.72
2022-10-05T21:36:24.842Z,63.60
2022-10-05T21:37:34.271Z,63.68
2022-10-05T21:38:43.305Z,63.98
2022-10-05T21:39:52.946Z,64.11
2022-10-05T21:42:17.842Z,63.85
2022-10-05T21:43:27.496Z,63.87
2022-10-05T21:45:55.218Z,63.70
2022-10-05T21:47:07.358Z,63.80
2022-10-05T21:48:18.313Z,63.66
2022-10-05T21:50:44.753Z,63.79
2022-10-05T21:53:13.513Z,63.21
2022-10-05T21:54:24.424Z,63.70
2022-10-05T21:55:36.266Z,63.86
2022-10-05T21:58:04.733Z,64.33
2022-10-05T21:59:17.643Z,64.36
2022-10-05T22:01:42.647Z,64.20
2022-10-05T22:04:08.769Z,64.30
2022-10-05T22:06:36.125Z,64.46
2022-10-05T22:09:00.578Z,64.28
2022-10-05T22:11:28.576Z,64.49
2022-10-05T22:14:00.898Z,64.59
2022-10-05T22:16:26.444Z,64.61
2022-10-05T22:18:53.267Z,64.21
2022-10-05T22:21:21.131Z,64.33
2022-10-05T22:23:47.049Z,64.03
2022-10-05T22:26:15.715Z,63.83
2022-10-05T22:28:46.430Z,64.00
2022-10-05T22:31:13.499Z,63.81
2022-10-05T22:33:37.383Z,63.51
2022-10-05T22:34:46.709Z,63.51
2022-10-05T22:37:15.289Z,63.66
2022-10-05T22:39:40.200Z,63.05
2022-10-05T22:42:05.740Z,63.02
2022-10-05T22:44:30.507Z,63.21
2022-10-05T22:46:57.057Z,63.22
2022-10-05T22:48:05.732Z,63.44
2022-10-05T22:49:22.135Z,63.37
2022-10-05T22:51:48.630Z,63.58
2022-10-05T22:54:36.547Z,63.55
2022-10-05T22:55:43.943Z,63.19
2022-10-05T22:56:53.846Z,63.19
2022-10-05T22:58:03.071Z,63.32
2022-10-05T22:59:11.968Z,63.22
2022-10-05T23:00:27.606Z,63.16
2022-10-05T23:02:49.604Z,63.58
2022-10-05T23:03:58.765Z,63.64
2022-10-05T23:05:09.244Z,63.80
2022-10-05T23:06:20.659Z,63.32
2022-10-05T23:07:37.646Z,63.39
2022-10-05T23:10:04.482Z,63.31
2022-10-05T23:11:17.555Z,63.01
2022-10-05T23:12:26.874Z,63.00
2022-10-05T23:14:51.711Z,63.57
2022-10-05T23:16:10.698Z,63.55
2022-10-05T23:17:21.666Z,63.57
2022-10-05T23:18:31.440Z,63.78
2022-10-05T23:19:41.152Z,63.71
2022-10-05T23:20:55.589Z,63.15
2022-10-05T23:22:05.124Z,63.15
2022-10-05T23:24:29.855Z,63.51
2022-10-05T23:26:53.469Z,63.85
2022-10-05T23:28:02.959Z,63.71
2022-10-05T23:29:11.617Z,63.55
2022-10-05T23:30:21.894Z,63.38
2022-10-05T23:31:33.433Z,63.64
2022-10-05T23:32:45.111Z,63.47
2022-10-05T23:33:54.958Z,63.21
2022-10-05T23:36:23.232Z,63.22
2022-10-05T23:37:36.552Z,63.45
2022-10-05T23:38:47.040Z,63.40
2022-10-05T23:39:56.939Z,63.35
2022-10-05T23:41:09.119Z,63.16
2022-10-05T23:42:20.168Z,63.33
2022-10-05T23:43:29.935Z,63.36
2022-10-05T23:44:39.853Z,63.66
2022-10-05T23:45:49.982Z,63.84
2022-10-05T23:48:26.909Z,63.94
2022-10-05T23:50:53.315Z,63.70
2022-10-05T23:52:03.096Z,63.75
2022-10-05T23:53:13.548Z,64.08
2022-10-05T23:54:23.279Z,64.26
2022-10-05T23:55:32.710Z,64.23
2022-10-05T23:56:43.261Z,64.44
2022-10-05T23:57:52.117Z,64.26
2022-10-05T23:59:01.926Z,64.11
